sensor_id;sensor_type;location;lat;lon;timestamp;temperature;humidity
57552;DHT22;43379;48.160;14.036;2023-06-24T00:01:23;19.40;99.90
57552;DHT22;43379;48.160;14.036;2023-06-24T00:03:49;19.30;99.90
57552;DHT22;43379;48.160;14.036;2023-06-24T00:06:21;19.30;99.90
57552;DHT22;43379;48.160;14.036;2023-06-24T00:08:52;19.30;99.90
57552;DHT22;43379;48.160;14.036;2023-06-24T00:11:18;19.30;99.90
57552;DHT22;43379;48.160;14.036;2023-06-24T00:13:44;19.30;99.90
57552;DHT22;43379;48.160;14.036;2023-06-24T00:16:10;19.30;99.90
57552;DHT22;43379;48.160;14.036;2023-06-24T00:18:37;19.30;99.90
57552;DHT22;43379;48.160;14.036;2023-06-24T00:21:06;19.30;99.90
57552;DHT22;43379;48.160;14.036;2023-06-24T00:23:31;19.20;99.90
57552;DHT22;43379;48.160;14.036;2023-06-24T00:26:00;19.30;99.90
57552;DHT22;43379;48.160;14.036;2023-06-24T00:28:26;19.20;99.90
57552;DHT22;43379;48.160;14.036;2023-06-24T00:30:52;19.30;99.90
57552;DHT22;43379;48.160;14.036;2023-06-24T00:33:18;19.30;99.90
57552;DHT22;43379;48.160;14.036;2023-06-24T00:35:47;19.30;99.90
57552;DHT22;43379;48.160;14.036;2023-06-24T00:38:13;19.30;99.90
57552;DHT22;43379;48.160;14.036;2023-06-24T00:40:39;19.30;99.90
57552;DHT22;43379;48.160;14.036;2023-06-24T00:43:05;19.30;99.90
57552;DHT22;43379;48.160;14.036;2023-06-24T00:45:31;19.20;99.90
57552;DHT22;43379;48.160;14.036;2023-06-24T00:47:58;19.20;99.90
57552;DHT22;43379;48.160;14.036;2023-06-24T00:50:24;19.10;99.90
57552;DHT22;43379;48.160;14.036;2023-06-24T00:52:50;19.10;99.90
57552;DHT22;43379;48.160;14.036;2023-06-24T00:55:16;19.10;99.90
57552;DHT22;43379;48.160;14.036;2023-06-24T00:57:47;19.10;99.90
57552;DHT22;43379;48.160;14.036;2023-06-24T01:00:18;19.00;99.90
57552;DHT22;43379;48.160;14.036;2023-06-24T01:02:47;19.10;99.90
57552;DHT22;43379;48.160;14.036;2023-06-24T01:05:13;19.00;99.90
57552;DHT22;43379;48.160;14.036;2023-06-24T01:07:41;19.00;99.90
57552;DHT22;43379;48.160;14.036;2023-06-24T01:10:08;19.00;99.90
57552;DHT22;43379;48.160;14.036;2023-06-24T01:12:36;18.90;99.90
57552;DHT22;43379;48.160;14.036;2023-06-24T01:15:04;18.90;99.90
57552;DHT22;43379;48.160;14.036;2023-06-24T01:21:27;19.00;99.90
57552;DHT22;43379;48.160;14.036;2023-06-24T01:24:23;18.90;99.90
57552;DHT22;43379;48.160;14.036;2023-06-24T01:32:15;18.90;99.90
57552;DHT22;43379;48.160;14.036;2023-06-24T01:34:55;18.90;99.90
57552;DHT22;43379;48.160;14.036;2023-06-24T01:40:38;18.90;99.90
57552;DHT22;43379;48.160;14.036;2023-06-24T01:43:08;18.90;99.90
57552;DHT22;43379;48.160;14.036;2023-06-24T01:45:54;18.80;99.90
57552;DHT22;43379;48.160;14.036;2023-06-24T01:48:35;18.80;99.90
57552;DHT22;43379;48.160;14.036;2023-06-24T01:51:06;18.80;99.90
57552;DHT22;43379;48.160;14.036;2023-06-24T01:53:34;18.70;99.90
57552;DHT22;43379;48.160;14.036;2023-06-24T01:56:03;18.70;99.90
57552;DHT22;43379;48.160;14.036;2023-06-24T01:58:31;18.70;99.90
57552;DHT22;43379;48.160;14.036;2023-06-24T02:00:58;18.70;99.90
57552;DHT22;43379;48.160;14.036;2023-06-24T02:03:25;18.80;99.90
57552;DHT22;43379;48.160;14.036;2023-06-24T02:05:53;18.70;99.90
57552;DHT22;43379;48.160;14.036;2023-06-24T02:08:20;18.60;99.90
57552;DHT22;43379;48.160;14.036;2023-06-24T02:10:47;18.60;99.90
57552;DHT22;43379;48.160;14.036;2023-06-24T02:13:14;18.70;99.90
57552;DHT22;43379;48.160;14.036;2023-06-24T02:15:41;18.60;99.90
57552;DHT22;43379;48.160;14.036;2023-06-24T02:18:08;18.70;99.90
57552;DHT22;43379;48.160;14.036;2023-06-24T02:20:36;18.60;99.90
57552;DHT22;43379;48.160;14.036;2023-06-24T02:23:04;18.60;99.90
57552;DHT22;43379;48.160;14.036;2023-06-24T02:25:31;18.60;99.90
57552;DHT22;43379;48.160;14.036;2023-06-24T02:27:57;18.60;99.90
57552;DHT22;43379;48.160;14.036;2023-06-24T02:30:23;18.60;99.90
57552;DHT22;43379;48.160;14.036;2023-06-24T02:32:49;18.60;99.90
57552;DHT22;43379;48.160;14.036;2023-06-24T02:35:15;18.60;99.90
57552;DHT22;43379;48.160;14.036;2023-06-24T02:37:41;18.60;99.90
57552;DHT22;43379;48.160;14.036;2023-06-24T02:40:07;18.60;99.90
57552;DHT22;43379;48.160;14.036;2023-06-24T02:42:35;18.60;99.90
57552;DHT22;43379;48.160;14.036;2023-06-24T02:45:02;18.60;99.90
57552;DHT22;43379;48.160;14.036;2023-06-24T02:47:29;18.50;99.90
57552;DHT22;43379;48.160;14.036;2023-06-24T02:49:56;18.50;99.90
57552;DHT22;43379;48.160;14.036;2023-06-24T02:52:23;18.50;99.90
57552;DHT22;43379;48.160;14.036;2023-06-24T02:54:49;18.50;99.90
57552;DHT22;43379;48.160;14.036;2023-06-24T02:57:15;18.50;99.90
57552;DHT22;43379;48.160;14.036;2023-06-24T02:59:41;18.50;99.90
57552;DHT22;43379;48.160;14.036;2023-06-24T03:02:07;18.50;99.90
57552;DHT22;43379;48.160;14.036;2023-06-24T03:04:33;18.50;99.90
57552;DHT22;43379;48.160;14.036;2023-06-24T03:07:00;18.40;99.90
57552;DHT22;43379;48.160;14.036;2023-06-24T03:09:32;18.50;99.90
57552;DHT22;43379;48.160;14.036;2023-06-24T03:11:59;18.50;99.90
57552;DHT22;43379;48.160;14.036;2023-06-24T03:14:25;18.50;99.90
57552;DHT22;43379;48.160;14.036;2023-06-24T03:16:50;18.50;99.90
57552;DHT22;43379;48.160;14.036;2023-06-24T03:19:16;18.50;99.90
57552;DHT22;43379;48.160;14.036;2023-06-24T03:21:41;18.50;99.90
57552;DHT22;43379;48.160;14.036;2023-06-24T03:24:07;18.40;99.90
57552;DHT22;43379;48.160;14.036;2023-06-24T03:26:35;18.40;99.90
57552;DHT22;43379;48.160;14.036;2023-06-24T03:29:01;18.30;99.90
57552;DHT22;43379;48.160;14.036;2023-06-24T03:31:27;18.40;99.90
57552;DHT22;43379;48.160;14.036;2023-06-24T03:33:52;18.40;99.90
57552;DHT22;43379;48.160;14.036;2023-06-24T03:36:18;18.40;99.90
57552;DHT22;43379;48.160;14.036;2023-06-24T03:38:44;18.30;99.90
57552;DHT22;43379;48.160;14.036;2023-06-24T03:41:10;18.30;99.90
57552;DHT22;43379;48.160;14.036;2023-06-24T03:43:35;18.30;99.90
57552;DHT22;43379;48.160;14.036;2023-06-24T03:46:01;18.30;99.90
57552;DHT22;43379;48.160;14.036;2023-06-24T03:48:27;18.30;99.90
57552;DHT22;43379;48.160;14.036;2023-06-24T03:50:53;18.30;99.90
57552;DHT22;43379;48.160;14.036;2023-06-24T03:53:19;18.30;99.90
57552;DHT22;43379;48.160;14.036;2023-06-24T03:55:45;18.30;99.90
57552;DHT22;43379;48.160;14.036;2023-06-24T03:58:10;18.30;99.90
57552;DHT22;43379;48.160;14.036;2023-06-24T04:00:36;18.30;99.90
57552;DHT22;43379;48.160;14.036;2023-06-24T04:03:09;18.30;99.90
57552;DHT22;43379;48.160;14.036;2023-06-24T04:05:35;18.30;99.90
57552;DHT22;43379;48.160;14.036;2023-06-24T04:08:00;18.30;99.90
57552;DHT22;43379;48.160;14.036;2023-06-24T04:10:29;18.30;99.90
57552;DHT22;43379;48.160;14.036;2023-06-24T04:12:54;18.30;99.90
57552;DHT22;43379;48.160;14.036;2023-06-24T04:15:20;18.30;99.90
57552;DHT22;43379;48.160;14.036;2023-06-24T04:17:45;18.20;99.90
57552;DHT22;43379;48.160;14.036;2023-06-24T04:20:11;18.30;99.90
57552;DHT22;43379;48.160;14.036;2023-06-24T04:22:37;18.20;99.90
57552;DHT22;43379;48.160;14.036;2023-06-24T04:25:05;18.30;99.90
57552;DHT22;43379;48.160;14.036;2023-06-24T04:27:31;18.30;99.90
57552;DHT22;43379;48.160;14.036;2023-06-24T04:29:58;18.20;99.90
57552;DHT22;43379;48.160;14.036;2023-06-24T04:32:24;18.20;99.90
57552;DHT22;43379;48.160;14.036;2023-06-24T04:34:49;18.10;99.90
57552;DHT22;43379;48.160;14.036;2023-06-24T04:37:15;18.10;99.90
57552;DHT22;43379;48.160;14.036;2023-06-24T04:39:41;18.20;99.90
57552;DHT22;43379;48.160;14.036;2023-06-24T04:42:07;18.20;99.90
57552;DHT22;43379;48.160;14.036;2023-06-24T04:44:32;18.20;99.90
57552;DHT22;43379;48.160;14.036;2023-06-24T04:46:58;18.20;99.90
57552;DHT22;43379;48.160;14.036;2023-06-24T04:49:24;18.20;99.90
57552;DHT22;43379;48.160;14.036;2023-06-24T04:51:49;18.30;99.90
57552;DHT22;43379;48.160;14.036;2023-06-24T04:54:15;18.20;99.90
57552;DHT22;43379;48.160;14.036;2023-06-24T04:56:41;18.20;99.90
57552;DHT22;43379;48.160;14.036;2023-06-24T04:59:07;18.20;99.90
57552;DHT22;43379;48.160;14.036;2023-06-24T05:01:32;18.20;99.90
57552;DHT22;43379;48.160;14.036;2023-06-24T05:03:58;18.10;99.90
57552;DHT22;43379;48.160;14.036;2023-06-24T05:06:24;18.10;99.90
57552;DHT22;43379;48.160;14.036;2023-06-24T05:08:50;18.10;99.90
57552;DHT22;43379;48.160;14.036;2023-06-24T05:11:15;18.10;99.90
57552;DHT22;43379;48.160;14.036;2023-06-24T05:13:41;18.10;99.90
57552;DHT22;43379;48.160;14.036;2023-06-24T05:16:06;18.00;99.90
57552;DHT22;43379;48.160;14.036;2023-06-24T05:18:32;18.10;99.90
57552;DHT22;43379;48.160;14.036;2023-06-24T05:20:58;18.10;99.90
57552;DHT22;43379;48.160;14.036;2023-06-24T05:23:23;18.00;99.90
57552;DHT22;43379;48.160;14.036;2023-06-24T05:25:49;18.10;99.90
57552;DHT22;43379;48.160;14.036;2023-06-24T05:28:15;18.10;99.90
57552;DHT22;43379;48.160;14.036;2023-06-24T05:30:41;18.10;99.90
57552;DHT22;43379;48.160;14.036;2023-06-24T05:33:06;18.10;99.90
57552;DHT22;43379;48.160;14.036;2023-06-24T05:35:33;18.10;99.90
57552;DHT22;43379;48.160;14.036;2023-06-24T05:37:58;18.10;99.90
57552;DHT22;43379;48.160;14.036;2023-06-24T05:40:24;18.10;99.90
57552;DHT22;43379;48.160;14.036;2023-06-24T05:42:50;18.20;99.90
57552;DHT22;43379;48.160;14.036;2023-06-24T05:45:17;18.10;99.90
57552;DHT22;43379;48.160;14.036;2023-06-24T05:47:43;18.10;99.90
57552;DHT22;43379;48.160;14.036;2023-06-24T05:50:08;18.10;99.90
57552;DHT22;43379;48.160;14.036;2023-06-24T05:52:34;18.10;99.90
57552;DHT22;43379;48.160;14.036;2023-06-24T05:55:00;18.10;99.90
57552;DHT22;43379;48.160;14.036;2023-06-24T05:57:25;18.10;99.90
57552;DHT22;43379;48.160;14.036;2023-06-24T05:59:51;18.10;99.90
57552;DHT22;43379;48.160;14.036;2023-06-24T06:02:17;18.10;99.90
57552;DHT22;43379;48.160;14.036;2023-06-24T06:04:42;18.00;99.90
57552;DHT22;43379;48.160;14.036;2023-06-24T06:07:08;18.00;99.90
57552;DHT22;43379;48.160;14.036;2023-06-24T06:09:34;18.00;99.90
57552;DHT22;43379;48.160;14.036;2023-06-24T06:11:59;18.00;99.90
57552;DHT22;43379;48.160;14.036;2023-06-24T06:14:25;18.00;99.90
57552;DHT22;43379;48.160;14.036;2023-06-24T06:16:50;18.00;99.90
57552;DHT22;43379;48.160;14.036;2023-06-24T06:19:16;18.00;99.90
57552;DHT22;43379;48.160;14.036;2023-06-24T06:21:42;18.10;99.90
57552;DHT22;43379;48.160;14.036;2023-06-24T06:24:07;18.10;99.90
57552;DHT22;43379;48.160;14.036;2023-06-24T06:26:33;18.10;99.90
57552;DHT22;43379;48.160;14.036;2023-06-24T06:28:59;18.10;99.90
57552;DHT22;43379;48.160;14.036;2023-06-24T06:31:24;18.20;99.90
57552;DHT22;43379;48.160;14.036;2023-06-24T06:33:51;18.10;99.90
57552;DHT22;43379;48.160;14.036;2023-06-24T06:36:17;18.00;99.90
57552;DHT22;43379;48.160;14.036;2023-06-24T06:38:42;18.00;99.90
57552;DHT22;43379;48.160;14.036;2023-06-24T06:41:08;18.10;99.90
57552;DHT22;43379;48.160;14.036;2023-06-24T06:43:34;18.10;99.90
57552;DHT22;43379;48.160;14.036;2023-06-24T06:45:59;18.00;99.90
57552;DHT22;43379;48.160;14.036;2023-06-24T06:48:25;18.10;99.90
57552;DHT22;43379;48.160;14.036;2023-06-24T06:50:51;18.10;99.90
57552;DHT22;43379;48.160;14.036;2023-06-24T06:53:18;18.10;99.90
57552;DHT22;43379;48.160;14.036;2023-06-24T06:55:44;18.10;99.90
57552;DHT22;43379;48.160;14.036;2023-06-24T06:58:10;18.20;99.90
57552;DHT22;43379;48.160;14.036;2023-06-24T07:00:35;18.30;99.90
57552;DHT22;43379;48.160;14.036;2023-06-24T07:03:01;18.30;99.90
57552;DHT22;43379;48.160;14.036;2023-06-24T07:05:27;18.30;99.90
57552;DHT22;43379;48.160;14.036;2023-06-24T07:07:53;18.30;99.90
57552;DHT22;43379;48.160;14.036;2023-06-24T07:10:19;18.30;99.90
57552;DHT22;43379;48.160;14.036;2023-06-24T07:12:45;18.30;99.90
57552;DHT22;43379;48.160;14.036;2023-06-24T07:15:11;18.30;99.90
57552;DHT22;43379;48.160;14.036;2023-06-24T07:17:36;18.20;99.90
57552;DHT22;43379;48.160;14.036;2023-06-24T07:20:03;18.20;99.90
57552;DHT22;43379;48.160;14.036;2023-06-24T07:22:28;18.30;99.90
57552;DHT22;43379;48.160;14.036;2023-06-24T07:24:56;18.20;99.90
57552;DHT22;43379;48.160;14.036;2023-06-24T07:27:22;18.30;99.90
57552;DHT22;43379;48.160;14.036;2023-06-24T07:29:47;18.20;99.90
57552;DHT22;43379;48.160;14.036;2023-06-24T07:32:13;18.30;99.90
57552;DHT22;43379;48.160;14.036;2023-06-24T07:34:39;18.20;99.90
57552;DHT22;43379;48.160;14.036;2023-06-24T07:37:04;18.30;99.90
57552;DHT22;43379;48.160;14.036;2023-06-24T07:39:30;18.30;99.90
57552;DHT22;43379;48.160;14.036;2023-06-24T07:41:55;18.30;99.90
57552;DHT22;43379;48.160;14.036;2023-06-24T07:44:21;18.30;99.90
57552;DHT22;43379;48.160;14.036;2023-06-24T07:46:47;18.30;99.90
57552;DHT22;43379;48.160;14.036;2023-06-24T07:49:13;18.30;99.90
57552;DHT22;43379;48.160;14.036;2023-06-24T07:51:39;18.30;99.90
57552;DHT22;43379;48.160;14.036;2023-06-24T07:54:05;18.30;99.90
57552;DHT22;43379;48.160;14.036;2023-06-24T07:56:30;18.30;99.90
57552;DHT22;43379;48.160;14.036;2023-06-24T07:58:56;18.30;99.90
57552;DHT22;43379;48.160;14.036;2023-06-24T08:01:22;18.30;99.90
57552;DHT22;43379;48.160;14.036;2023-06-24T08:03:47;18.30;99.90
57552;DHT22;43379;48.160;14.036;2023-06-24T08:06:13;18.30;99.90
57552;DHT22;43379;48.160;14.036;2023-06-24T08:08:39;18.30;99.90
57552;DHT22;43379;48.160;14.036;2023-06-24T08:11:04;18.20;99.90
57552;DHT22;43379;48.160;14.036;2023-06-24T08:13:30;18.30;99.90
57552;DHT22;43379;48.160;14.036;2023-06-24T08:15:56;18.30;99.90
57552;DHT22;43379;48.160;14.036;2023-06-24T08:18:22;18.30;99.90
57552;DHT22;43379;48.160;14.036;2023-06-24T08:20:48;18.30;99.90
57552;DHT22;43379;48.160;14.036;2023-06-24T08:23:13;18.30;99.90
57552;DHT22;43379;48.160;14.036;2023-06-24T08:25:39;18.30;99.90
57552;DHT22;43379;48.160;14.036;2023-06-24T08:28:05;18.40;99.90
57552;DHT22;43379;48.160;14.036;2023-06-24T08:30:30;18.40;99.90
57552;DHT22;43379;48.160;14.036;2023-06-24T08:32:56;18.40;99.90
57552;DHT22;43379;48.160;14.036;2023-06-24T08:35:22;18.40;99.90
57552;DHT22;43379;48.160;14.036;2023-06-24T08:37:47;18.40;99.90
57552;DHT22;43379;48.160;14.036;2023-06-24T08:40:13;18.40;99.90
57552;DHT22;43379;48.160;14.036;2023-06-24T08:42:39;18.40;99.90
57552;DHT22;43379;48.160;14.036;2023-06-24T08:45:05;18.40;99.90
57552;DHT22;43379;48.160;14.036;2023-06-24T08:47:31;18.40;99.90
57552;DHT22;43379;48.160;14.036;2023-06-24T08:50:11;18.50;99.90
57552;DHT22;43379;48.160;14.036;2023-06-24T08:52:41;18.50;99.90
57552;DHT22;43379;48.160;14.036;2023-06-24T08:55:09;18.50;99.90
57552;DHT22;43379;48.160;14.036;2023-06-24T08:57:36;18.40;99.90
57552;DHT22;43379;48.160;14.036;2023-06-24T09:00:02;18.50;99.90
57552;DHT22;43379;48.160;14.036;2023-06-24T09:02:30;18.50;99.90
57552;DHT22;43379;48.160;14.036;2023-06-24T09:04:58;18.50;99.90
57552;DHT22;43379;48.160;14.036;2023-06-24T09:07:27;18.50;99.90
57552;DHT22;43379;48.160;14.036;2023-06-24T09:09:56;18.50;99.90
57552;DHT22;43379;48.160;14.036;2023-06-24T09:12:23;18.50;99.90
57552;DHT22;43379;48.160;14.036;2023-06-24T09:14:50;18.50;99.90
57552;DHT22;43379;48.160;14.036;2023-06-24T09:17:16;18.50;99.90
57552;DHT22;43379;48.160;14.036;2023-06-24T09:19:42;18.50;99.90
57552;DHT22;43379;48.160;14.036;2023-06-24T09:22:09;18.50;99.90
57552;DHT22;43379;48.160;14.036;2023-06-24T09:24:42;18.50;99.90
57552;DHT22;43379;48.160;14.036;2023-06-24T09:27:08;18.50;99.90
57552;DHT22;43379;48.160;14.036;2023-06-24T09:29:35;18.50;99.90
57552;DHT22;43379;48.160;14.036;2023-06-24T09:32:04;18.50;99.90
57552;DHT22;43379;48.160;14.036;2023-06-24T09:34:31;18.50;99.90
57552;DHT22;43379;48.160;14.036;2023-06-24T09:36:58;18.50;99.90
57552;DHT22;43379;48.160;14.036;2023-06-24T09:39:25;18.50;99.90
57552;DHT22;43379;48.160;14.036;2023-06-24T09:42:00;18.40;99.90
57552;DHT22;43379;48.160;14.036;2023-06-24T09:44:27;18.40;99.90
57552;DHT22;43379;48.160;14.036;2023-06-24T09:46:53;18.40;99.90
57552;DHT22;43379;48.160;14.036;2023-06-24T09:49:19;18.40;99.90
57552;DHT22;43379;48.160;14.036;2023-06-24T09:51:47;18.40;99.90
57552;DHT22;43379;48.160;14.036;2023-06-24T09:54:15;18.40;99.90
57552;DHT22;43379;48.160;14.036;2023-06-24T09:56:48;18.40;99.90
57552;DHT22;43379;48.160;14.036;2023-06-24T09:59:15;18.40;99.90
57552;DHT22;43379;48.160;14.036;2023-06-24T10:01:44;18.40;99.90
57552;DHT22;43379;48.160;14.036;2023-06-24T10:04:16;18.40;99.90
57552;DHT22;43379;48.160;14.036;2023-06-24T10:06:42;18.40;99.90
57552;DHT22;43379;48.160;14.036;2023-06-24T10:09:08;18.40;99.90
57552;DHT22;43379;48.160;14.036;2023-06-24T10:11:34;18.40;99.90
57552;DHT22;43379;48.160;14.036;2023-06-24T10:14:00;18.50;99.90
57552;DHT22;43379;48.160;14.036;2023-06-24T10:16:26;18.50;99.90
57552;DHT22;43379;48.160;14.036;2023-06-24T10:18:52;18.60;99.90
57552;DHT22;43379;48.160;14.036;2023-06-24T10:21:44;18.60;99.90
57552;DHT22;43379;48.160;14.036;2023-06-24T10:24:11;18.70;99.90
57552;DHT22;43379;48.160;14.036;2023-06-24T10:26:40;18.70;99.90
57552;DHT22;43379;48.160;14.036;2023-06-24T10:31:51;18.90;99.90
57552;DHT22;43379;48.160;14.036;2023-06-24T10:34:28;18.90;99.90
57552;DHT22;43379;48.160;14.036;2023-06-24T10:37:14;19.00;99.90
57552;DHT22;43379;48.160;14.036;2023-06-24T10:44:51;19.20;99.90
57552;DHT22;43379;48.160;14.036;2023-06-24T10:47:18;19.30;99.90
57552;DHT22;43379;48.160;14.036;2023-06-24T10:49:44;19.40;99.90
57552;DHT22;43379;48.160;14.036;2023-06-24T10:52:10;19.50;99.90
57552;DHT22;43379;48.160;14.036;2023-06-24T10:54:37;19.60;99.90
57552;DHT22;43379;48.160;14.036;2023-06-24T10:57:04;19.70;99.90
57552;DHT22;43379;48.160;14.036;2023-06-24T10:59:51;19.80;99.90
57552;DHT22;43379;48.160;14.036;2023-06-24T11:02:19;19.80;99.90
57552;DHT22;43379;48.160;14.036;2023-06-24T11:04:58;19.80;99.90
57552;DHT22;43379;48.160;14.036;2023-06-24T11:07:26;19.90;99.90
57552;DHT22;43379;48.160;14.036;2023-06-24T11:09:56;19.90;99.90
57552;DHT22;43379;48.160;14.036;2023-06-24T11:14:59;19.90;99.90
57552;DHT22;43379;48.160;14.036;2023-06-24T11:17:25;19.90;99.90
57552;DHT22;43379;48.160;14.036;2023-06-24T11:19:55;19.90;99.90
57552;DHT22;43379;48.160;14.036;2023-06-24T11:22:21;19.90;99.90
57552;DHT22;43379;48.160;14.036;2023-06-24T11:24:49;20.00;99.90
57552;DHT22;43379;48.160;14.036;2023-06-24T11:27:15;20.10;99.90
57552;DHT22;43379;48.160;14.036;2023-06-24T11:29:41;20.10;99.90
57552;DHT22;43379;48.160;14.036;2023-06-24T11:32:08;20.30;99.90
57552;DHT22;43379;48.160;14.036;2023-06-24T11:34:37;20.40;99.90
57552;DHT22;43379;48.160;14.036;2023-06-24T11:37:13;20.50;99.90
57552;DHT22;43379;48.160;14.036;2023-06-24T11:39:39;20.70;99.90
57552;DHT22;43379;48.160;14.036;2023-06-24T11:42:09;20.80;99.90
57552;DHT22;43379;48.160;14.036;2023-06-24T11:44:35;20.80;99.90
57552;DHT22;43379;48.160;14.036;2023-06-24T11:47:08;21.00;99.90
57552;DHT22;43379;48.160;14.036;2023-06-24T11:49:54;21.10;99.90
57552;DHT22;43379;48.160;14.036;2023-06-24T11:52:46;21.10;99.90
57552;DHT22;43379;48.160;14.036;2023-06-24T11:57:53;21.10;99.90
57552;DHT22;43379;48.160;14.036;2023-06-24T12:00:20;21.10;99.90
57552;DHT22;43379;48.160;14.036;2023-06-24T12:02:49;21.10;99.90
57552;DHT22;43379;48.160;14.036;2023-06-24T12:05:27;21.10;99.90
57552;DHT22;43379;48.160;14.036;2023-06-24T12:08:01;21.10;99.90
57552;DHT22;43379;48.160;14.036;2023-06-24T12:10:28;21.10;99.90
57552;DHT22;43379;48.160;14.036;2023-06-24T12:12:55;21.00;99.90
57552;DHT22;43379;48.160;14.036;2023-06-24T12:15:21;21.00;99.90
57552;DHT22;43379;48.160;14.036;2023-06-24T12:17:47;21.00;99.90
57552;DHT22;43379;48.160;14.036;2023-06-24T12:20:14;21.00;99.90
57552;DHT22;43379;48.160;14.036;2023-06-24T12:22:40;20.90;99.90
57552;DHT22;43379;48.160;14.036;2023-06-24T12:25:06;20.80;99.90
57552;DHT22;43379;48.160;14.036;2023-06-24T12:27:32;20.90;99.90
57552;DHT22;43379;48.160;14.036;2023-06-24T12:29:59;20.80;99.90
57552;DHT22;43379;48.160;14.036;2023-06-24T12:32:25;20.80;99.90
57552;DHT22;43379;48.160;14.036;2023-06-24T12:34:51;20.90;99.90
57552;DHT22;43379;48.160;14.036;2023-06-24T12:37:17;21.00;99.90
57552;DHT22;43379;48.160;14.036;2023-06-24T12:39:44;21.10;99.90
57552;DHT22;43379;48.160;14.036;2023-06-24T12:42:10;21.20;99.90
57552;DHT22;43379;48.160;14.036;2023-06-24T12:44:36;21.40;99.90
57552;DHT22;43379;48.160;14.036;2023-06-24T12:47:01;21.60;99.90
57552;DHT22;43379;48.160;14.036;2023-06-24T12:49:28;21.60;99.90
57552;DHT22;43379;48.160;14.036;2023-06-24T12:51:53;21.70;99.90
57552;DHT22;43379;48.160;14.036;2023-06-24T12:54:19;21.60;99.90
57552;DHT22;43379;48.160;14.036;2023-06-24T12:56:45;21.70;99.90
57552;DHT22;43379;48.160;14.036;2023-06-24T12:59:10;21.70;99.90
57552;DHT22;43379;48.160;14.036;2023-06-24T13:01:36;21.70;99.90
57552;DHT22;43379;48.160;14.036;2023-06-24T13:04:02;21.70;99.90
57552;DHT22;43379;48.160;14.036;2023-06-24T13:06:27;21.60;99.90
57552;DHT22;43379;48.160;14.036;2023-06-24T13:08:53;21.50;99.90
57552;DHT22;43379;48.160;14.036;2023-06-24T13:11:19;21.50;99.90
57552;DHT22;43379;48.160;14.036;2023-06-24T13:13:45;21.40;99.90
57552;DHT22;43379;48.160;14.036;2023-06-24T13:16:10;21.40;99.90
57552;DHT22;43379;48.160;14.036;2023-06-24T13:18:36;21.40;99.90
57552;DHT22;43379;48.160;14.036;2023-06-24T13:21:01;21.40;99.90
57552;DHT22;43379;48.160;14.036;2023-06-24T13:23:28;21.30;99.90
57552;DHT22;43379;48.160;14.036;2023-06-24T13:25:53;21.30;99.90
57552;DHT22;43379;48.160;14.036;2023-06-24T13:28:19;21.40;99.90
57552;DHT22;43379;48.160;14.036;2023-06-24T13:30:45;21.30;99.90
57552;DHT22;43379;48.160;14.036;2023-06-24T13:33:10;21.40;99.90
57552;DHT22;43379;48.160;14.036;2023-06-24T13:35:36;21.40;99.90
57552;DHT22;43379;48.160;14.036;2023-06-24T13:38:01;21.40;99.90
57552;DHT22;43379;48.160;14.036;2023-06-24T13:40:27;21.40;99.90
57552;DHT22;43379;48.160;14.036;2023-06-24T13:42:53;21.50;99.90
57552;DHT22;43379;48.160;14.036;2023-06-24T13:45:19;21.70;99.90
57552;DHT22;43379;48.160;14.036;2023-06-24T13:47:44;21.70;99.90
57552;DHT22;43379;48.160;14.036;2023-06-24T13:50:10;21.70;99.90
57552;DHT22;43379;48.160;14.036;2023-06-24T13:52:36;21.80;99.80
57552;DHT22;43379;48.160;14.036;2023-06-24T13:55:01;21.90;99.50
57552;DHT22;43379;48.160;14.036;2023-06-24T13:57:27;22.00;99.40
57552;DHT22;43379;48.160;14.036;2023-06-24T13:59:53;22.10;99.70
57552;DHT22;43379;48.160;14.036;2023-06-24T14:02:18;22.10;99.60
57552;DHT22;43379;48.160;14.036;2023-06-24T14:04:45;22.20;99.80
57552;DHT22;43379;48.160;14.036;2023-06-24T14:07:11;22.30;99.10
57552;DHT22;43379;48.160;14.036;2023-06-24T14:09:38;22.40;99.20
57552;DHT22;43379;48.160;14.036;2023-06-24T14:12:05;22.50;98.90
57552;DHT22;43379;48.160;14.036;2023-06-24T14:14:30;22.50;98.80
57552;DHT22;43379;48.160;14.036;2023-06-24T14:16:56;22.60;98.80
57552;DHT22;43379;48.160;14.036;2023-06-24T14:19:22;22.60;98.60
57552;DHT22;43379;48.160;14.036;2023-06-24T14:21:47;22.70;98.60
57552;DHT22;43379;48.160;14.036;2023-06-24T14:24:13;22.70;98.10
57552;DHT22;43379;48.160;14.036;2023-06-24T14:26:39;22.70;98.10
57552;DHT22;43379;48.160;14.036;2023-06-24T14:29:04;22.60;97.90
57552;DHT22;43379;48.160;14.036;2023-06-24T14:31:30;22.60;98.00
57552;DHT22;43379;48.160;14.036;2023-06-24T14:33:56;22.60;97.80
57552;DHT22;43379;48.160;14.036;2023-06-24T14:36:21;22.60;97.50
57552;DHT22;43379;48.160;14.036;2023-06-24T14:38:47;22.60;97.60
57552;DHT22;43379;48.160;14.036;2023-06-24T14:41:13;22.70;97.80
57552;DHT22;43379;48.160;14.036;2023-06-24T14:43:38;22.70;97.90
57552;DHT22;43379;48.160;14.036;2023-06-24T14:46:04;22.80;97.40
57552;DHT22;43379;48.160;14.036;2023-06-24T14:48:30;22.80;97.30
57552;DHT22;43379;48.160;14.036;2023-06-24T14:50:55;22.80;97.10
57552;DHT22;43379;48.160;14.036;2023-06-24T14:53:21;22.80;96.90
57552;DHT22;43379;48.160;14.036;2023-06-24T14:55:46;22.80;96.70
57552;DHT22;43379;48.160;14.036;2023-06-24T14:58:12;22.80;97.50
57552;DHT22;43379;48.160;14.036;2023-06-24T15:00:38;22.90;97.20
57552;DHT22;43379;48.160;14.036;2023-06-24T15:03:04;22.90;97.10
57552;DHT22;43379;48.160;14.036;2023-06-24T15:05:29;22.90;96.90
57552;DHT22;43379;48.160;14.036;2023-06-24T15:07:55;22.90;97.10
57552;DHT22;43379;48.160;14.036;2023-06-24T15:10:21;22.90;96.90
57552;DHT22;43379;48.160;14.036;2023-06-24T15:12:46;23.00;97.10
57552;DHT22;43379;48.160;14.036;2023-06-24T15:15:12;23.00;97.10
57552;DHT22;43379;48.160;14.036;2023-06-24T15:17:38;23.00;97.00
57552;DHT22;43379;48.160;14.036;2023-06-24T15:20:10;23.00;97.20
57552;DHT22;43379;48.160;14.036;2023-06-24T15:22:36;23.00;96.90
57552;DHT22;43379;48.160;14.036;2023-06-24T15:25:02;23.00;97.00
57552;DHT22;43379;48.160;14.036;2023-06-24T15:27:28;23.00;97.00
57552;DHT22;43379;48.160;14.036;2023-06-24T15:29:53;23.10;97.20
57552;DHT22;43379;48.160;14.036;2023-06-24T15:32:19;23.10;97.30
57552;DHT22;43379;48.160;14.036;2023-06-24T15:34:44;23.10;97.10
57552;DHT22;43379;48.160;14.036;2023-06-24T15:37:10;23.20;97.00
57552;DHT22;43379;48.160;14.036;2023-06-24T15:39:36;23.20;96.70